Time;durP1;ratioP1;P1;durP2;ratioP2;P2;SDS_P1;SDS_P2;PMS_P1;PMS_P2;Temp;Humidity;BMP_temperature;BMP_pressure;BME280_temperature;BME280_humidity;BME280_pressure;Samples;Min_cycle;Max_cycle;Signal;HPM_P1;HPM_P2
2021/08/31 00:02:19;;;;;;;6.78;3.97;;;;;;;;;;5070726;28;20107;-67
2021/08/31 00:05:50;;;;;;;8.93;4.63;;;;;;;;;;5112086;27;20497;-68
2021/08/31 00:08:16;;;;;;;8.85;4.47;;;;;;;;;;5109765;28;20027;-68
2021/08/31 00:10:42;;;;;;;9.82;4.28;;;;;;;;;;5110914;28;20028;-68
2021/08/31 00:17:34;;;;;;;8.82;4.53;;;;;;;;;;5070878;28;20388;-67
2021/08/31 00:22:08;;;;;;;7.15;3.97;;;;;;;;;;5111675;27;20418;-67
2021/08/31 00:24:34;;;;;;;8.88;4.63;;;;;;;;;;5109515;28;20034;-68
2021/08/31 00:27:01;;;;;;;9.43;5.05;;;;;;;;;;5109896;28;20081;-69
2021/08/31 00:29:27;;;;;;;12.05;5.00;;;;;;;;;;5111310;28;20447;-68
2021/08/31 00:31:53;;;;;;;8.18;4.32;;;;;;;;;;5110783;28;20024;-68
2021/08/31 00:36:48;;;;;;;6.97;4.00;;;;;;;;;;5071179;28;20392;-67
2021/08/31 00:42:25;;;;;;;7.15;4.18;;;;;;;;;;5071378;28;20388;-68
2021/08/31 00:44:52;;;;;;;8.02;4.47;;;;;;;;;;5070409;28;20028;-67
2021/08/31 00:47:18;;;;;;;8.77;3.92;;;;;;;;;;5070680;28;20055;-67
2021/08/31 00:49:44;;;;;;;7.68;4.43;;;;;;;;;;5070823;28;20489;-70
2021/08/31 00:52:52;;;;;;;9.23;4.78;;;;;;;;;;5070449;28;20391;-67
2021/08/31 00:55:18;;;;;;;7.88;4.25;;;;;;;;;;5070745;28;20116;-68
2021/08/31 00:59:21;;;;;;;9.00;4.95;;;;;;;;;;5111344;27;20385;-70
2021/08/31 01:03:32;;;;;;;7.90;4.35;;;;;;;;;;5071126;28;20392;-67
2021/08/31 01:06:35;;;;;;;10.63;5.50;;;;;;;;;;5111354;27;20389;-67
2021/08/31 01:09:01;;;;;;;9.45;5.10;;;;;;;;;;5111387;28;20024;-67
2021/08/31 01:13:13;;;;;;;8.27;4.20;;;;;;;;;;5070395;28;20919;-68
2021/08/31 01:15:40;;;;;;;7.10;4.20;;;;;;;;;;5070973;28;20029;-68
2021/08/31 01:18:17;;;;;;;9.52;4.13;;;;;;;;;;5070891;28;20021;-68
2021/08/31 01:20:43;;;;;;;9.38;4.70;;;;;;;;;;5070695;28;20023;-68
2021/08/31 01:23:10;;;;;;;7.20;4.18;;;;;;;;;;5070538;28;20029;-68
2021/08/31 01:25:36;;;;;;;7.18;4.25;;;;;;;;;;5069271;28;20074;-67
2021/08/31 01:28:03;;;;;;;9.43;4.82;;;;;;;;;;5068821;28;20384;-67
2021/08/31 01:30:29;;;;;;;8.55;3.80;;;;;;;;;;5069333;28;20501;-68
2021/08/31 01:34:02;;;;;;;8.20;4.35;;;;;;;;;;5110804;27;20408;-67
2021/08/31 01:37:59;;;;;;;12.30;5.20;;;;;;;;;;5111378;27;20414;-68
2021/08/31 01:40:25;;;;;;;8.65;5.05;;;;;;;;;;5109954;28;20035;-68
2021/08/31 01:48:01;;;;;;;9.60;4.30;;;;;;;;;;5111272;27;20799;-67
2021/08/31 01:50:27;;;;;;;6.68;3.95;;;;;;;;;;5111284;28;20028;-67
2021/08/31 01:54:43;;;;;;;7.88;3.95;;;;;;;;;;5071117;28;20749;-67
2021/08/31 01:57:09;;;;;;;8.32;3.72;;;;;;;;;;5070380;28;20025;-68
2021/08/31 01:59:36;;;;;;;8.98;4.45;;;;;;;;;;5070645;28;20021;-68
2021/08/31 02:02:02;;;;;;;8.02;4.32;;;;;;;;;;5070646;28;20028;-68
2021/08/31 02:04:32;;;;;;;6.70;3.80;;;;;;;;;;5070631;28;20017;-68
2021/08/31 02:06:59;;;;;;;8.70;4.68;;;;;;;;;;5070522;28;20040;-68
2021/08/31 02:09:25;;;;;;;8.02;4.38;;;;;;;;;;5070319;28;20328;-68
2021/08/31 02:11:51;;;;;;;8.30;4.43;;;;;;;;;;5070385;28;20358;-68
2021/08/31 02:14:17;;;;;;;7.43;4.65;;;;;;;;;;5070249;28;20036;-68
2021/08/31 02:16:44;;;;;;;8.15;4.13;;;;;;;;;;5070021;28;20029;-68
2021/08/31 02:22:19;;;;;;;10.40;5.15;;;;;;;;;;5111614;27;20481;-67
2021/08/31 02:24:46;;;;;;;8.45;4.45;;;;;;;;;;5110868;28;20028;-67
2021/08/31 02:27:12;;;;;;;8.55;4.55;;;;;;;;;;5109923;28;20388;-67
2021/08/31 02:30:52;;;;;;;10.25;4.47;;;;;;;;;;5111465;27;20423;-66
2021/08/31 02:34:29;;;;;;;7.57;4.35;;;;;;;;;;5111435;27;20306;-67
2021/08/31 02:36:55;;;;;;;6.68;3.78;;;;;;;;;;5111401;28;20085;-67
2021/08/31 02:40:11;;;;;;;7.57;4.03;;;;;;;;;;5071193;28;20399;-67
2021/08/31 02:42:38;;;;;;;9.32;4.03;;;;;;;;;;5070652;28;20095;-67
2021/08/31 02:45:05;;;;;;;10.05;4.22;;;;;;;;;;5070631;28;20386;-67
2021/08/31 02:47:31;;;;;;;8.10;4.30;;;;;;;;;;5069291;28;20449;-70
2021/08/31 02:49:57;;;;;;;9.45;4.90;;;;;;;;;;5070573;28;20028;-69
2021/08/31 02:52:23;;;;;;;10.15;4.07;;;;;;;;;;5070113;28;20056;-67
2021/08/31 02:54:50;;;;;;;7.50;4.45;;;;;;;;;;5070506;28;20029;-69
2021/08/31 02:58:36;;;;;;;7.38;4.00;;;;;;;;;;5070710;28;20764;-67
2021/08/31 03:02:51;;;;;;;8.30;4.30;;;;;;;;;;5071498;28;20430;-67
2021/08/31 03:05:18;;;;;;;7.70;4.20;;;;;;;;;;5070806;28;20033;-69
2021/08/31 03:07:44;;;;;;;9.10;4.68;;;;;;;;;;5070275;28;20024;-69
2021/08/31 03:10:10;;;;;;;8.15;4.35;;;;;;;;;;5070615;28;20091;-69
2021/08/31 03:12:37;;;;;;;8.57;4.53;;;;;;;;;;5068959;28;20111;-69
2021/08/31 03:15:04;;;;;;;7.55;4.00;;;;;;;;;;5069262;28;20021;-69
2021/08/31 03:17:30;;;;;;;7.25;3.85;;;;;;;;;;5070522;28;20032;-69
2021/08/31 03:21:46;;;;;;;8.18;3.92;;;;;;;;;;5070564;28;20391;-68
2021/08/31 03:24:12;;;;;;;7.50;3.92;;;;;;;;;;5071096;28;20025;-68
2021/08/31 03:27:39;;;;;;;8.07;4.45;;;;;;;;;;5070239;28;20915;-68
2021/08/31 03:32:08;;;;;;;8.45;4.57;;;;;;;;;;5070713;28;20911;-67
2021/08/31 03:34:34;;;;;;;6.95;4.35;;;;;;;;;;5069178;28;20400;-69
2021/08/31 03:37:23;;;;;;;6.55;3.30;;;;;;;;;;5111672;27;20405;-68
2021/08/31 03:41:40;;;;;;;8.80;3.80;;;;;;;;;;5070298;28;20426;-70
2021/08/31 03:44:06;;;;;;;8.50;4.22;;;;;;;;;;5070770;28;20028;-67
2021/08/31 03:46:32;;;;;;;7.63;4.20;;;;;;;;;;5069269;28;20024;-67
2021/08/31 03:48:59;;;;;;;9.43;5.22;;;;;;;;;;5070212;28;20047;-67
2021/08/31 03:52:37;;;;;;;7.95;3.83;;;;;;;;;;5071056;28;20387;-67
2021/08/31 03:55:03;;;;;;;6.88;4.05;;;;;;;;;;5070361;28;20575;-68
2021/08/31 03:57:30;;;;;;;7.22;4.00;;;;;;;;;;5070624;28;20052;-68
2021/08/31 03:59:56;;;;;;;8.63;4.30;;;;;;;;;;5070891;28;20424;-68
2021/08/31 04:02:22;;;;;;;9.27;4.55;;;;;;;;;;5070180;28;20346;-68
2021/08/31 04:04:49;;;;;;;10.88;5.47;;;;;;;;;;5069256;28;20508;-68
2021/08/31 04:07:15;;;;;;;16.17;5.80;;;;;;;;;;5070631;28;20032;-68
2021/08/31 04:09:41;;;;;;;15.63;5.70;;;;;;;;;;5070035;28;20021;-69
2021/08/31 04:12:08;;;;;;;12.50;5.72;;;;;;;;;;5070294;28;20485;-68
2021/08/31 04:15:12;;;;;;;10.63;5.65;;;;;;;;;;5111839;27;20503;-69
2021/08/31 04:17:38;;;;;;;11.32;5.47;;;;;;;;;;5110937;28;20048;-70
2021/08/31 04:22:11;;;;;;;10.57;5.28;;;;;;;;;;5111876;27;20476;-69
2021/08/31 04:24:46;;;;;;;11.90;5.97;;;;;;;;;;5110966;27;20465;-68
2021/08/31 04:31:01;;;;;;;8.20;4.43;;;;;;;;;;5070743;28;20427;-68
2021/08/31 04:33:42;;;;;;;8.75;4.80;;;;;;;;;;5071484;28;20383;-67
2021/08/31 04:36:40;;;;;;;10.45;4.72;;;;;;;;;;5112177;27;20414;-70
2021/08/31 04:39:06;;;;;;;14.88;6.05;;;;;;;;;;5109597;28;20514;-67
2021/08/31 04:42:32;;;;;;;13.73;6.28;;;;;;;;;;5071545;28;20391;-68
2021/08/31 04:44:58;;;;;;;12.48;6.25;;;;;;;;;;5070270;28;20021;-68
2021/08/31 04:47:24;;;;;;;13.82;6.82;;;;;;;;;;5070779;28;20075;-69
2021/08/31 04:53:46;;;;;;;12.15;6.10;;;;;;;;;;5111315;27;20935;-69
2021/08/31 04:58:21;;;;;;;11.60;5.35;;;;;;;;;;5070893;28;20411;-68
2021/08/31 05:01:31;;;;;;;11.35;6.05;;;;;;;;;;5111719;27;20419;-70
2021/08/31 05:04:56;;;;;;;9.77;6.00;;;;;;;;;;5131530;27;20309;-69
2021/08/31 05:07:31;;;;;;;10.43;5.00;;;;;;;;;;5071215;28;20422;-69
2021/08/31 05:09:58;;;;;;;9.35;5.00;;;;;;;;;;5069442;28;20032;-69
2021/08/31 05:12:24;;;;;;;8.52;4.97;;;;;;;;;;5070246;28;20025;-70
2021/08/31 05:14:50;;;;;;;7.55;4.45;;;;;;;;;;5069392;28;20026;-69
2021/08/31 05:19:16;;;;;;;7.38;4.22;;;;;;;;;;5070564;28;20951;-68
2021/08/31 05:21:43;;;;;;;8.85;3.92;;;;;;;;;;5070778;28;20047;-69
2021/08/31 05:24:09;;;;;;;5.72;3.42;;;;;;;;;;5070279;28;20023;-67
2021/08/31 05:28:07;;;;;;;8.05;3.65;;;;;;;;;;5109860;27;20416;-68
2021/08/31 05:32:24;;;;;;;5.55;3.40;;;;;;;;;;5070804;28;20395;-68
2021/08/31 05:36:05;;;;;;;6.95;3.30;;;;;;;;;;5068730;27;1892630;-70
2021/08/31 05:38:31;;;;;;;8.65;3.53;;;;;;;;;;5109639;28;20039;-68
2021/08/31 05:40:57;;;;;;;8.32;3.88;;;;;;;;;;5110978;28;20094;-67
2021/08/31 05:43:24;;;;;;;12.35;4.32;;;;;;;;;;5109674;28;20430;-68
2021/08/31 05:45:50;;;;;;;8.10;4.30;;;;;;;;;;5107528;28;20028;-68
2021/08/31 05:48:16;;;;;;;7.53;3.92;;;;;;;;;;5110633;28;20081;-69
2021/08/31 05:50:42;;;;;;;7.15;3.80;;;;;;;;;;5107643;28;20380;-72
2021/08/31 05:53:08;;;;;;;7.45;3.72;;;;;;;;;;5097448;28;20020;-69
2021/08/31 05:55:35;;;;;;;8.65;3.42;;;;;;;;;;5096163;28;20472;-69
2021/08/31 06:03:52;;;;;;;8.70;3.45;;;;;;;;;;5118235;27;20400;-68
2021/08/31 06:08:35;;;;;;;6.68;3.60;;;;;;;;;;5107920;27;20392;-71
2021/08/31 06:11:01;;;;;;;6.35;3.10;;;;;;;;;;5108906;28;20384;-71
2021/08/31 06:13:28;;;;;;;8.10;4.22;;;;;;;;;;5108618;28;20023;-72
2021/08/31 06:17:21;;;;;;;6.38;3.33;;;;;;;;;;5102097;27;20475;-72
2021/08/31 06:19:47;;;;;;;8.02;3.70;;;;;;;;;;5089311;28;20032;-72
2021/08/31 06:26:51;;;;;;;11.05;4.40;;;;;;;;;;5090017;27;20935;-71
2021/08/31 06:29:17;;;;;;;7.93;3.78;;;;;;;;;;5105938;28;20032;-70
2021/08/31 06:32:45;;;;;;;7.55;3.95;;;;;;;;;;5070304;28;20414;-71
2021/08/31 06:35:11;;;;;;;8.90;4.32;;;;;;;;;;5055398;28;20020;-72
2021/08/31 06:37:37;;;;;;;10.32;4.28;;;;;;;;;;5048129;28;20056;-73
2021/08/31 06:40:04;;;;;;;6.22;3.35;;;;;;;;;;5040698;28;20046;-72
2021/08/31 06:42:30;;;;;;;7.70;3.63;;;;;;;;;;5042680;28;20083;-70
2021/08/31 06:44:56;;;;;;;7.90;4.13;;;;;;;;;;5046736;28;20660;-71
2021/08/31 06:47:22;;;;;;;6.30;3.33;;;;;;;;;;5045537;28;20032;-71
2021/08/31 06:49:49;;;;;;;7.50;3.75;;;;;;;;;;5044116;28;20029;-71
2021/08/31 06:52:15;;;;;;;7.95;3.90;;;;;;;;;;5047323;28;20041;-70
2021/08/31 06:55:28;;;;;;;7.13;3.65;;;;;;;;;;5056960;27;20538;-65
2021/08/31 06:57:55;;;;;;;10.15;3.30;;;;;;;;;;5056897;28;20032;-67
2021/08/31 07:00:21;;;;;;;8.30;3.60;;;;;;;;;;5064116;28;20594;-67
2021/08/31 07:02:47;;;;;;;8.82;4.00;;;;;;;;;;5057826;28;20028;-68
2021/08/31 07:05:13;;;;;;;7.15;3.92;;;;;;;;;;5061789;28;20659;-67
2021/08/31 07:07:40;;;;;;;6.18;2.90;;;;;;;;;;5056803;28;20032;-68
2021/08/31 07:10:06;;;;;;;6.93;3.35;;;;;;;;;;5058822;28;20190;-70
2021/08/31 07:12:32;;;;;;;5.40;2.78;;;;;;;;;;5058006;28;20040;-68
2021/08/31 07:14:59;;;;;;;6.38;3.00;;;;;;;;;;5059587;28;20040;-68
2021/08/31 07:17:25;;;;;;;6.03;3.33;;;;;;;;;;5057111;28;20025;-68
2021/08/31 07:21:19;;;;;;;6.93;3.25;;;;;;;;;;5079695;27;20445;-69
2021/08/31 07:23:45;;;;;;;5.65;3.10;;;;;;;;;;5080182;28;20032;-68
2021/08/31 07:26:12;;;;;;;11.45;3.40;;;;;;;;;;5077543;28;20556;-69
2021/08/31 07:28:38;;;;;;;8.32;3.47;;;;;;;;;;5074626;28;20415;-69
2021/08/31 07:31:04;;;;;;;8.13;3.88;;;;;;;;;;5083077;28;21302;-68
2021/08/31 07:33:30;;;;;;;6.45;3.03;;;;;;;;;;5079077;28;20031;-68
2021/08/31 07:35:56;;;;;;;6.68;3.05;;;;;;;;;;5078862;28;20512;-67
2021/08/31 07:38:23;;;;;;;8.18;3.47;;;;;;;;;;5081414;28;20043;-68
2021/08/31 07:40:49;;;;;;;5.60;2.78;;;;;;;;;;5077173;28;20044;-67
2021/08/31 07:43:15;;;;;;;6.70;3.80;;;;;;;;;;5074947;28;20098;-65
2021/08/31 07:45:42;;;;;;;7.10;3.30;;;;;;;;;;5073781;28;20077;-67
2021/08/31 07:48:08;;;;;;;6.03;3.03;;;;;;;;;;5075997;28;20034;-67
2021/08/31 07:50:35;;;;;;;7.38;3.05;;;;;;;;;;5081563;28;20048;-67
2021/08/31 07:53:01;;;;;;;5.18;2.70;;;;;;;;;;5077779;28;20155;-68
2021/08/31 07:55:27;;;;;;;5.22;2.83;;;;;;;;;;5075215;28;20032;-67
2021/08/31 08:00:00;;;;;;;5.50;2.92;;;;;;;;;;5091434;27;20427;-65
2021/08/31 08:02:26;;;;;;;5.80;3.10;;;;;;;;;;5087835;28;20491;-72
2021/08/31 08:06:36;;;;;;;8.00;3.22;;;;;;;;;;5066116;28;20429;-72
2021/08/31 08:09:29;;;;;;;6.18;3.25;;;;;;;;;;5046214;28;20524;-71
2021/08/31 08:11:55;;;;;;;6.70;3.33;;;;;;;;;;5049858;28;20039;-71
2021/08/31 08:16:09;;;;;;;9.80;3.08;;;;;;;;;;5042103;28;21028;-71
2021/08/31 08:18:36;;;;;;;6.45;3.28;;;;;;;;;;5046127;28;20033;-72
2021/08/31 08:21:02;;;;;;;4.63;2.78;;;;;;;;;;5045316;28;20366;-71
2021/08/31 08:23:28;;;;;;;5.68;2.85;;;;;;;;;;5047122;28;20028;-72
2021/08/31 08:27:10;;;;;;;7.43;2.97;;;;;;;;;;5093363;27;20452;-71
2021/08/31 08:29:38;;;;;;;4.38;2.20;;;;;;;;;;5089714;28;20035;-71
2021/08/31 08:32:08;;;;;;;6.53;2.45;;;;;;;;;;5083373;28;20023;-71
2021/08/31 08:34:34;;;;;;;4.68;2.60;;;;;;;;;;5089226;28;20077;-72
2021/08/31 08:37:00;;;;;;;4.05;2.40;;;;;;;;;;5097953;28;20485;-73
2021/08/31 08:41:06;;;;;;;4.05;1.80;;;;;;;;;;5065579;27;20802;-73
2021/08/31 08:43:36;;;;;;;6.38;2.05;;;;;;;;;;5057666;28;20024;-73
2021/08/31 08:46:04;;;;;;;3.30;1.85;;;;;;;;;;5060315;28;20024;-73
2021/08/31 08:48:31;;;;;;;5.82;1.75;;;;;;;;;;5061529;28;20024;-74
2021/08/31 08:50:58;;;;;;;3.45;2.08;;;;;;;;;;5060120;28;20021;-73
2021/08/31 08:53:26;;;;;;;4.55;1.90;;;;;;;;;;5061235;28;20150;-71
2021/08/31 08:56:37;;;;;;;6.80;1.67;;;;;;;;;;5090534;27;20802;-72
2021/08/31 08:59:03;;;;;;;4.30;2.00;;;;;;;;;;5091288;28;20027;-72
2021/08/31 09:01:43;;;;;;;3.83;1.48;;;;;;;;;;5095159;28;20042;-76
2021/08/31 09:04:09;;;;;;;7.35;2.10;;;;;;;;;;5092493;28;20431;-66
2021/08/31 09:06:36;;;;;;;2.53;1.42;;;;;;;;;;5091754;28;20108;-67
2021/08/31 09:10:25;;;;;;;2.80;1.58;;;;;;;;;;5082342;27;20886;-69
2021/08/31 09:12:52;;;;;;;5.57;1.85;;;;;;;;;;5081998;28;20063;-68
2021/08/31 09:15:28;;;;;;;3.75;2.00;;;;;;;;;;5077949;28;20012;-67
2021/08/31 09:18:07;;;;;;;4.05;2.00;;;;;;;;;;5080057;28;20024;-68
2021/08/31 09:20:33;;;;;;;3.72;1.83;;;;;;;;;;5102723;28;20127;-67
2021/08/31 09:22:59;;;;;;;3.20;1.65;;;;;;;;;;5084552;28;20065;-67
2021/08/31 09:25:34;;;;;;;4.60;2.20;;;;;;;;;;5079369;28;20070;-70
2021/08/31 09:28:00;;;;;;;3.67;1.80;;;;;;;;;;5082988;28;20024;-72
2021/08/31 09:30:30;;;;;;;3.20;1.75;;;;;;;;;;5085034;28;20031;-71
2021/08/31 09:33:06;;;;;;;6.45;2.05;;;;;;;;;;5077738;28;20026;-71
2021/08/31 09:35:33;;;;;;;2.05;1.20;;;;;;;;;;5099989;28;20039;-68
2021/08/31 09:38:04;;;;;;;4.13;1.90;;;;;;;;;;5073669;28;20024;-71
2021/08/31 09:40:31;;;;;;;2.75;1.38;;;;;;;;;;5082732;28;20100;-70
2021/08/31 09:43:00;;;;;;;4.05;1.38;;;;;;;;;;5079418;28;20028;-69
2021/08/31 09:45:29;;;;;;;4.22;1.83;;;;;;;;;;5077682;28;20116;-68
2021/08/31 09:47:55;;;;;;;2.67;1.42;;;;;;;;;;5073917;28;20497;-69
2021/08/31 09:50:29;;;;;;;4.07;1.58;;;;;;;;;;5079677;28;20040;-71
2021/08/31 09:53:03;;;;;;;2.92;1.45;;;;;;;;;;5070262;28;20028;-72
2021/08/31 09:55:29;;;;;;;2.42;1.42;;;;;;;;;;5073867;28;20028;-69
2021/08/31 09:58:14;;;;;;;2.15;1.15;;;;;;;;;;5079992;28;20151;-76
2021/08/31 10:00:43;;;;;;;2.95;1.30;;;;;;;;;;5077041;28;20012;-74
2021/08/31 10:03:09;;;;;;;6.05;1.42;;;;;;;;;;5081443;28;20059;-75
2021/08/31 10:05:37;;;;;;;3.03;1.38;;;;;;;;;;5082474;28;20484;-75
2021/08/31 10:08:04;;;;;;;3.90;1.38;;;;;;;;;;5082509;28;20062;-76
2021/08/31 10:10:31;;;;;;;3.75;1.60;;;;;;;;;;5078819;28;20535;-76
2021/08/31 10:12:57;;;;;;;2.55;1.45;;;;;;;;;;5102077;28;20020;-77
2021/08/31 10:15:24;;;;;;;4.13;1.88;;;;;;;;;;5108469;28;20020;-78
2021/08/31 10:17:51;;;;;;;2.45;1.30;;;;;;;;;;5108502;28;20027;-78
2021/08/31 10:20:20;;;;;;;4.65;1.48;;;;;;;;;;5100165;28;20107;-78
2021/08/31 10:22:46;;;;;;;2.45;1.10;;;;;;;;;;5095520;28;20043;-76
2021/08/31 10:25:12;;;;;;;4.57;1.45;;;;;;;;;;5096358;28;20099;-75
2021/08/31 10:27:40;;;;;;;1.70;1.10;;;;;;;;;;5096221;28;20542;-76
2021/08/31 10:30:26;;;;;;;3.45;1.10;;;;;;;;;;5095852;28;20028;-75
2021/08/31 10:32:53;;;;;;;2.90;1.20;;;;;;;;;;5095984;28;20032;-76
2021/08/31 10:35:43;;;;;;;2.88;1.20;;;;;;;;;;5096184;28;20024;-77
2021/08/31 10:38:10;;;;;;;3.65;1.48;;;;;;;;;;5094613;28;20031;-75
2021/08/31 10:40:38;;;;;;;1.75;1.10;;;;;;;;;;5095949;28;20024;-75
2021/08/31 10:43:05;;;;;;;2.42;1.27;;;;;;;;;;5094328;28;20056;-75
2021/08/31 10:45:33;;;;;;;2.35;1.15;;;;;;;;;;5094591;28;20058;-77
2021/08/31 10:48:01;;;;;;;11.00;2.08;;;;;;;;;;5095714;28;20024;-69
2021/08/31 10:50:30;;;;;;;2.50;1.30;;;;;;;;;;5095515;28;20024;-70
2021/08/31 10:53:02;;;;;;;4.55;1.35;;;;;;;;;;5095755;28;20353;-72
2021/08/31 10:55:28;;;;;;;2.50;1.30;;;;;;;;;;5095499;28;20108;-72
2021/08/31 10:57:58;;;;;;;1.33;0.77;;;;;;;;;;5095182;28;20016;-70
2021/08/31 11:00:28;;;;;;;3.15;0.95;;;;;;;;;;5095418;28;20484;-70
2021/08/31 11:02:54;;;;;;;1.88;0.93;;;;;;;;;;5095558;28;20425;-73
2021/08/31 11:05:24;;;;;;;2.80;0.90;;;;;;;;;;5094872;28;20035;-73
2021/08/31 11:07:52;;;;;;;2.83;1.25;;;;;;;;;;5095077;28;20016;-71
2021/08/31 11:10:21;;;;;;;1.65;0.82;;;;;;;;;;5095600;28;20036;-69
2021/08/31 11:12:48;;;;;;;1.38;0.77;;;;;;;;;;5094612;28;20020;-69
2021/08/31 11:15:21;;;;;;;2.25;0.85;;;;;;;;;;5094582;28;20052;-70
2021/08/31 11:17:48;;;;;;;1.42;0.80;;;;;;;;;;5092920;28;20090;-72
2021/08/31 11:20:23;;;;;;;2.83;1.00;;;;;;;;;;5093316;28;20016;-70
2021/08/31 11:22:54;;;;;;;1.67;1.00;;;;;;;;;;5093698;28;20452;-71
2021/08/31 11:25:28;;;;;;;4.00;0.80;;;;;;;;;;5094657;28;20032;-71
2021/08/31 11:27:58;;;;;;;1.92;1.10;;;;;;;;;;5093423;28;20476;-72
2021/08/31 11:30:25;;;;;;;3.60;1.10;;;;;;;;;;5094884;28;20039;-72
2021/08/31 11:33:11;;;;;;;2.10;0.95;;;;;;;;;;5093675;28;20024;-73
2021/08/31 11:35:37;;;;;;;2.42;1.13;;;;;;;;;;5094723;28;20525;-73
2021/08/31 11:38:04;;;;;;;2.58;1.17;;;;;;;;;;5093497;28;20060;-71
2021/08/31 11:40:30;;;;;;;2.17;1.00;;;;;;;;;;5094502;28;20021;-72
2021/08/31 11:42:57;;;;;;;2.17;0.95;;;;;;;;;;5094506;28;20038;-72
2021/08/31 11:45:39;;;;;;;2.40;1.05;;;;;;;;;;5073215;28;20021;-71
2021/08/31 11:48:06;;;;;;;2.10;1.15;;;;;;;;;;5073845;28;20463;-72
2021/08/31 11:50:33;;;;;;;2.05;1.13;;;;;;;;;;5074316;28;20029;-71
2021/08/31 11:53:19;;;;;;;1.35;0.82;;;;;;;;;;5073948;28;20029;-72
2021/08/31 11:55:57;;;;;;;2.70;1.30;;;;;;;;;;5070246;28;20020;-71
2021/08/31 11:58:24;;;;;;;2.58;1.05;;;;;;;;;;5092599;28;20434;-72
2021/08/31 12:00:50;;;;;;;2.35;1.17;;;;;;;;;;5072145;28;20520;-72
2021/08/31 12:03:21;;;;;;;1.58;0.85;;;;;;;;;;5066247;28;20495;-71
2021/08/31 12:05:47;;;;;;;3.30;1.27;;;;;;;;;;5057508;28;20031;-72
2021/08/31 12:08:14;;;;;;;1.83;0.95;;;;;;;;;;5060362;28;20160;-71
2021/08/31 12:10:40;;;;;;;2.20;1.13;;;;;;;;;;5068960;28;20063;-71
2021/08/31 12:13:07;;;;;;;2.25;0.90;;;;;;;;;;5066603;28;20027;-71
2021/08/31 12:15:33;;;;;;;2.05;1.20;;;;;;;;;;5061774;28;20056;-70
2021/08/31 12:18:04;;;;;;;2.25;1.17;;;;;;;;;;5061201;28;20476;-72
2021/08/31 12:20:30;;;;;;;2.13;0.90;;;;;;;;;;5060876;28;20062;-75
2021/08/31 12:23:01;;;;;;;3.30;1.00;;;;;;;;;;5062030;28;20111;-71
2021/08/31 12:25:40;;;;;;;2.08;1.00;;;;;;;;;;5062265;28;20016;-70
2021/08/31 12:28:06;;;;;;;2.83;0.90;;;;;;;;;;5058164;28;20037;-73
2021/08/31 12:30:39;;;;;;;1.75;0.93;;;;;;;;;;5062651;28;20025;-74
2021/08/31 12:33:05;;;;;;;1.58;0.70;;;;;;;;;;5061869;28;20573;-72
2021/08/31 12:38:13;;;;;;;3.33;1.02;;;;;;;;;;5064484;28;20036;-71
2021/08/31 12:41:02;;;;;;;1.48;0.80;;;;;;;;;;5064933;28;20028;-70
2021/08/31 12:43:30;;;;;;;1.25;0.77;;;;;;;;;;5060286;28;20131;-70
2021/08/31 12:46:01;;;;;;;0.80;0.40;;;;;;;;;;5064023;28;20030;-70
2021/08/31 12:48:53;;;;;;;1.30;0.40;;;;;;;;;;5060524;28;20047;-68
2021/08/31 12:51:31;;;;;;;0.93;0.60;;;;;;;;;;5063081;28;20257;-68
2021/08/31 12:53:57;;;;;;;2.50;0.50;;;;;;;;;;5062206;28;20472;-70
2021/08/31 12:56:23;;;;;;;1.23;0.57;;;;;;;;;;5060215;28;20032;-68
2021/08/31 12:59:00;;;;;;;1.20;0.60;;;;;;;;;;5075627;28;20322;-71
2021/08/31 13:01:26;;;;;;;0.80;0.43;;;;;;;;;;5092901;28;20027;-72
2021/08/31 13:03:53;;;;;;;1.15;0.47;;;;;;;;;;5093179;28;20028;-70
2021/08/31 13:06:34;;;;;;;1.08;0.80;;;;;;;;;;5093449;28;20085;-70
2021/08/31 13:09:02;;;;;;;0.88;0.55;;;;;;;;;;5093023;28;20048;-72
2021/08/31 13:11:28;;;;;;;1.02;0.60;;;;;;;;;;5093013;28;20030;-71
2021/08/31 13:13:55;;;;;;;1.50;0.98;;;;;;;;;;5092148;28;20052;-71
2021/08/31 13:16:21;;;;;;;1.90;0.80;;;;;;;;;;5093293;28;20012;-71
2021/08/31 13:18:47;;;;;;;0.57;0.50;;;;;;;;;;5091631;28;20034;-66
2021/08/31 13:21:14;;;;;;;2.20;0.57;;;;;;;;;;5093180;28;20028;-65
2021/08/31 13:23:40;;;;;;;2.20;0.90;;;;;;;;;;5092698;28;20023;-65
2021/08/31 13:26:07;;;;;;;1.08;0.52;;;;;;;;;;5091970;28;20027;-66
2021/08/31 13:28:34;;;;;;;2.38;0.90;;;;;;;;;;5093101;28;20481;-67
2021/08/31 13:31:01;;;;;;;0.50;0.50;;;;;;;;;;5093225;28;20020;-66
2021/08/31 13:33:27;;;;;;;1.38;0.70;;;;;;;;;;5092641;28;20032;-67
2021/08/31 13:35:54;;;;;;;2.50;0.98;;;;;;;;;;5092835;28;20020;-67
2021/08/31 13:38:20;;;;;;;2.30;0.65;;;;;;;;;;5092750;28;20040;-67
2021/08/31 13:40:46;;;;;;;3.35;0.57;;;;;;;;;;5093074;28;20098;-66
2021/08/31 13:43:12;;;;;;;1.13;0.73;;;;;;;;;;5091794;28;20392;-67
2021/08/31 13:45:38;;;;;;;0.93;0.60;;;;;;;;;;5092638;28;20201;-66
2021/08/31 13:48:05;;;;;;;1.45;0.70;;;;;;;;;;5092894;28;20031;-66
2021/08/31 13:50:31;;;;;;;1.10;0.50;;;;;;;;;;5093028;28;20146;-65
2021/08/31 13:52:57;;;;;;;0.75;0.50;;;;;;;;;;5092811;28;20117;-64
2021/08/31 13:55:23;;;;;;;1.02;0.60;;;;;;;;;;5094438;28;20028;-64
2021/08/31 13:57:49;;;;;;;1.25;0.60;;;;;;;;;;5096676;28;20495;-65
2021/08/31 14:00:16;;;;;;;1.58;0.55;;;;;;;;;;5096516;28;20028;-64
2021/08/31 14:02:42;;;;;;;1.58;0.70;;;;;;;;;;5095415;28;20615;-65
2021/08/31 14:05:08;;;;;;;2.38;1.02;;;;;;;;;;5096954;28;20039;-65
2021/08/31 14:07:35;;;;;;;1.33;0.90;;;;;;;;;;5095811;28;20020;-66
2021/08/31 14:10:01;;;;;;;2.60;0.80;;;;;;;;;;5076777;28;20107;-66
2021/08/31 14:12:27;;;;;;;2.90;0.77;;;;;;;;;;5074824;28;20484;-66
2021/08/31 14:14:53;;;;;;;3.13;0.98;;;;;;;;;;5074351;28;20051;-65
2021/08/31 14:17:19;;;;;;;2.45;1.02;;;;;;;;;;5076114;28;20020;-67
2021/08/31 14:19:46;;;;;;;3.03;1.30;;;;;;;;;;5076148;28;20060;-66
2021/08/31 14:22:12;;;;;;;2.47;0.95;;;;;;;;;;5074236;28;20123;-66
2021/08/31 14:24:38;;;;;;;3.33;1.27;;;;;;;;;;5075933;28;20024;-70
2021/08/31 14:27:04;;;;;;;2.58;1.20;;;;;;;;;;5075923;28;20028;-67
2021/08/31 14:29:30;;;;;;;1.63;1.25;;;;;;;;;;5075574;28;20040;-70
2021/08/31 14:31:56;;;;;;;3.10;1.20;;;;;;;;;;5075968;28;20017;-67
2021/08/31 14:34:23;;;;;;;2.80;1.08;;;;;;;;;;5075900;28;20060;-68
2021/08/31 14:36:49;;;;;;;2.08;1.00;;;;;;;;;;5075491;28;20017;-68
2021/08/31 14:39:15;;;;;;;3.58;1.00;;;;;;;;;;5077813;28;20381;-69
2021/08/31 14:41:41;;;;;;;1.15;0.73;;;;;;;;;;5069243;28;20024;-69
2021/08/31 14:44:08;;;;;;;1.17;0.90;;;;;;;;;;5081239;28;20511;-67
2021/08/31 14:46:34;;;;;;;1.65;0.88;;;;;;;;;;5075321;28;20050;-68
2021/08/31 14:49:01;;;;;;;2.90;1.42;;;;;;;;;;5059859;28;20032;-70
2021/08/31 14:51:27;;;;;;;1.45;0.52;;;;;;;;;;5064673;28;20012;-69
2021/08/31 14:53:54;;;;;;;2.03;1.08;;;;;;;;;;5063064;28;20105;-69
2021/08/31 14:56:20;;;;;;;1.85;0.98;;;;;;;;;;5064776;28;20051;-70
2021/08/31 14:58:46;;;;;;;2.20;0.98;;;;;;;;;;5064520;28;20705;-70
2021/08/31 15:01:12;;;;;;;1.85;0.90;;;;;;;;;;5062979;28;20035;-70
2021/08/31 15:03:38;;;;;;;1.75;0.80;;;;;;;;;;5063021;28;20024;-70
2021/08/31 15:06:05;;;;;;;4.57;1.30;;;;;;;;;;5066837;28;20481;-70
2021/08/31 15:08:31;;;;;;;2.45;1.00;;;;;;;;;;5058881;28;20044;-69
2021/08/31 15:10:57;;;;;;;3.78;1.00;;;;;;;;;;5089325;28;20043;-70
2021/08/31 15:13:23;;;;;;;3.00;1.48;;;;;;;;;;5095523;28;20024;-69
2021/08/31 15:15:50;;;;;;;2.63;1.20;;;;;;;;;;5093955;28;20024;-69
2021/08/31 15:18:16;;;;;;;2.08;0.90;;;;;;;;;;5093285;28;20416;-69
2021/08/31 15:20:42;;;;;;;1.52;0.90;;;;;;;;;;5093452;28;20166;-69
2021/08/31 15:23:09;;;;;;;1.92;1.05;;;;;;;;;;5095092;28;20022;-69
2021/08/31 15:25:35;;;;;;;3.42;1.27;;;;;;;;;;5094685;28;20048;-69
2021/08/31 15:28:01;;;;;;;2.20;1.13;;;;;;;;;;5093679;28;20103;-69
2021/08/31 15:30:29;;;;;;;3.92;1.63;;;;;;;;;;5093626;28;20362;-70
2021/08/31 15:32:55;;;;;;;3.92;1.20;;;;;;;;;;5094648;28;20116;-68
2021/08/31 15:35:22;;;;;;;2.45;1.52;;;;;;;;;;5095270;28;20034;-69
2021/08/31 15:37:48;;;;;;;2.97;1.20;;;;;;;;;;5094898;28;20020;-69
2021/08/31 15:40:15;;;;;;;1.73;0.90;;;;;;;;;;5094450;28;20540;-69
2021/08/31 15:42:41;;;;;;;2.70;1.10;;;;;;;;;;5093595;28;20103;-69
2021/08/31 15:45:08;;;;;;;5.53;1.67;;;;;;;;;;5094403;28;20476;-69
2021/08/31 15:47:34;;;;;;;2.58;1.15;;;;;;;;;;5093426;28;20028;-69
2021/08/31 15:50:01;;;;;;;2.50;0.98;;;;;;;;;;5094603;28;20036;-69
2021/08/31 15:52:27;;;;;;;2.17;0.90;;;;;;;;;;5094307;28;20075;-69
2021/08/31 15:54:53;;;;;;;1.67;0.90;;;;;;;;;;5094850;28;20376;-69
2021/08/31 15:57:19;;;;;;;1.33;1.05;;;;;;;;;;5094937;28;20084;-69
2021/08/31 15:59:45;;;;;;;2.35;1.08;;;;;;;;;;5092888;28;20480;-69
2021/08/31 16:02:15;;;;;;;1.98;1.08;;;;;;;;;;5094524;28;20030;-69
2021/08/31 16:04:42;;;;;;;1.63;0.80;;;;;;;;;;5087295;28;20373;-69
2021/08/31 16:07:08;;;;;;;6.82;2.50;;;;;;;;;;5073815;28;20032;-68
2021/08/31 16:09:34;;;;;;;12.23;4.88;;;;;;;;;;5088403;28;20048;-69
2021/08/31 16:12:00;;;;;;;7.38;2.95;;;;;;;;;;5094464;28;20384;-69
2021/08/31 16:14:27;;;;;;;14.95;5.70;;;;;;;;;;5093923;28;20026;-70
2021/08/31 16:16:53;;;;;;;12.20;4.97;;;;;;;;;;5109850;28;20031;-70
2021/08/31 16:19:19;;;;;;;30.27;10.40;;;;;;;;;;5085869;28;20020;-69
2021/08/31 16:21:46;;;;;;;27.38;9.30;;;;;;;;;;5073575;28;20021;-69
2021/08/31 16:24:13;;;;;;;14.00;5.35;;;;;;;;;;5074003;28;20021;-68